Portada
METAR-TAF:

METAR-TAF

Aeroports :

Phrae, Tailàndia

latitud: 18-10N, longitud: 100-10E, altitud: 161 m

Observació

L'informe es va fer fa 48 minuts, a les 02:00 UTC
Vent calma
Temperatura 23°C
Humitat 61%
Pressió 1020 hPa
Visibilitat: 5500 m

METAR: VTCP 230200Z 00000KT 5500 NSC 23/15 Q1020 NOSIG

Hora: 09:48 (02:48 UTC)

Pronòstic

L'informe es va fer fa 3 hores i 48 minuts, a les 23:00 UTC
Pronòstic vàlid del 23 a les 00 UTC al 23 a les 24 UTC
Vent 5 kt del Est
Visibilitat: 2500 m
Escasses núvols a una alçada de 2500 ft
boirina
Evolucionant progressivament
l' 23 a les 03 UTC al 23 a les 05 UTC
Visibilitat 10 km o més
Escasses núvols a una alçada de 2500 ft

TAF: VTCP 222300Z 2300/2324 08005KT 2500 BR FEW025 BECMG 2303/2305 9999 NSW FEW025

Observacions i pronòstics meteorològics de més de 4000 aeroports (METAR i TAF).

Les estacions disponibles són els punts grocs i vermells al mapa.

Posi el ratolí al punt desitjat per veure el nom de l'estació.

Feu clic per veure les observacions i els pronòstics meteorològics.

Per canviar el mapa: feu clic els botons verds amb una creu de color negre per apropar; al botó verd amb un guió per allunyar la imatge; o en les fletxes verdes per a mapes adjacents.


METAR-TAF: